Nearby METAR Reports - Updated every 30 to 60 minutes

KMYV - Marysville, California, USA
Distance from station: SE 6mi, 9.6km
Updated: Thu, 18-Oct-2018 2:53pm PDT
Clear
Clear
 Wind from calm
Wind: Calm
Temperature: 81°F , 27°C
Dew Point: 36°F , 2°C
Humidity: 20%
Barometer: 30.07 inHg , 1018.3 hPa
Clouds: Clear
Visibility: 10 miles , 16 km
2018/10/18 21:53 KMYV 182153Z AUTO 00000KT 10SM CLR 27/02 A3007 RMK AO2 SLP185 T02720017
KOVE - Oroville, California, USA
Distance from station: 0 27mi, 45km
Updated: Thu, 18-Oct-2018 2:53pm PDT
Clear
Clear
 Wind from W
Wind: W 3 mph , 6 km/h
Temperature: 79°F , 26°C
Dew Point: 34°F , 1°C
Humidity: 20%
Barometer: 30.08 inHg , 1018.6 hPa
Clouds: Clear
Visibility: 10 miles , 16 km
2018/10/18 21:53 KOVE 182153Z AUTO 28003KT 10SM CLR 26/01 A3008 RMK AO2 SLP188 T02610011
 
KCIC - Chico Municipal, California, USA
Distance from station: NNW 50mi, 80.6km
Updated: Thu, 18-Oct-2018 2:50pm PDT
Clear
Clear
 Wind from varies
Wind: varies 6 mph , 9 km/h
Temperature: 77°F , 25°C
Dew Point: 30°F , -1°C
Humidity: 18%
Barometer: 30.08 inHg , 1018.6 hPa
Clouds: Clear
Visibility: 10 miles , 16 km
2018/10/18 21:50 KCIC 182150Z VRB05KT 10SM SKC 25/M01 A3008
KRBL - Red Bluff, California, USA
Distance from station: NNW 85mi, 137km
Updated: Thu, 18-Oct-2018 2:54pm PDT
Clear
Clear
 Wind from calm
Wind: Calm
Temperature: 81°F , 27°C
Dew Point: 32°F , 0°C
Humidity: 17%
Barometer: 30.07 inHg , 1018.3 hPa
Clouds: Clear
Visibility: 10 miles , 16 km
2018/10/18 21:54 KRBL 182154Z AUTO 00000KT 10SM CLR 27/00 A3007 RMK AO2 SLP180 T02720000
 
KRDD - Redding, California, USA
Distance from station: N 110mi, 177km
Updated: Thu, 18-Oct-2018 2:53pm PDT
Clear
Clear
 Wind from calm
Wind: Calm
Temperature: 82°F , 28°C
Dew Point: 30°F , -1°C
Humidity: 15%
Barometer: 30.06 inHg , 1017.9 hPa
Clouds: Clear
Visibility: 10 miles , 16 km
2018/10/18 21:53 KRDD 182153Z 00000KT 10SM CLR 28/M01 A3006 RMK AO2 SLP174 T02781011
KMHS - Mount Shasta, California, USA
Distance from station: N 170mi, 274km
Updated: Thu, 18-Oct-2018 2:56pm PDT
Clear
Clear
 Wind from varies
Wind: varies 5 mph , 7 km/h
Temperature: 75°F , 24°C
Dew Point: 27°F , -3°C
Humidity: 16%
Barometer: 30.17 inHg , 1021.7 hPa
Clouds: Clear
Visibility: 10 miles , 16 km
2018/10/18 21:56 KMHS 182156Z AUTO VRB04KT 10SM CLR 24/M03 A3017 RMK AO2 SLP222 T02391028
 
KSIY - Montague/Siskiyou, California, USA
Distance from station: N 214mi, 3441km
Updated: Thu, 18-Oct-2018 2:53pm PDT
Clear
Clear
 Wind from calm
Wind: Calm
Temperature: 75°F , 24°C
Dew Point: 25°F , -4°C
Humidity: 15%
Barometer: 30.16 inHg , 1021.3 hPa
Clouds: Clear
Visibility: 10 miles , 16 km
2018/10/18 21:53 KSIY 182153Z AUTO 00000KT 10SM CLR 24/M04 A3016 RMK AO2 SLP217 T02391039
KO54 - Weaverville, California, USA
Distance from station: NW 161mi, 259km
Updated: Thu, 18-Oct-2018 3:35pm PDT
Clear
Clear
 Wind from calm
Wind: Calm
Temperature: 81°F , 27°C
Dew Point: 25°F , -4°C
Humidity: 13%
Barometer: 30.12 inHg , 1020 hPa
Clouds: Clear
Visibility: 10 miles , 16 km
2018/10/18 22:35 KO54 182235Z AUTO 00000KT 10SM CLR 27/M04 A3012 RMK AO1
 
KO86 - Trinity Center, California, USA
Distance from station: NNW 181mi, 291km
Updated: Tue, 03-Apr-2018 9:35pm PDT
NOT Current
Partly cloudy
Partly cloudy
 Wind from W
Wind: W 3 mph , 6 km/h
Temperature: 54°F , 12°C
Dew Point: 36°F , 2°C
Humidity: 51%
Barometer: 30.02 inHg , 1016.6 hPa
Clouds: Partly cloudy
Visibility: 10 miles , 16 km
Cloud details: Partly cloudy 10000 ft
2018/04/04 04:35 KO86 040435Z AUTO 27003KT 10SM SCT100 12/02 A3002 RMK AO1
KCEC - Crescent City, California, USA
Distance from station: SE 355mi, 571km
Updated: Thu, 18-Oct-2018 2:56pm PDT
Overcast
Overcast
 Wind from NW
Wind: NW 9 mph , 15 km/h
Temperature: 55°F , 13°C
Dew Point: 48°F , 9°C
Humidity: 77%
Barometer: 30.18 inHg , 1022 hPa
Clouds: Overcast
Visibility: 9 miles , 14 km
Cloud details: Overcast 700 ft
2018/10/18 21:56 KCEC 182156Z AUTO 32008KT 9SM OVC007 13/09 A3018 RMK AO2 SLP221 T01280094
 
KACV - Arcata/Eureka, California, USA
Distance from station: WNW 259mi, 417km
Updated: Thu, 18-Oct-2018 2:53pm PDT
Clear
Clear
 Wind from NW
Wind: NW 12 mph , 19 km/h
Temperature: 55°F , 13°C
Dew Point: 48°F , 9°C
Humidity: 77%
Barometer: 30.16 inHg , 1021.3 hPa
Clouds: Clear
Visibility: 10 miles , 16 km
2018/10/18 21:53 KACV 182153Z AUTO 31010KT 10SM CLR 13/09 A3016 RMK AO2 SLP220 T01280094
KFOT - Fortuna, California, USA
Distance from station: S 245mi, 395km
Updated: Thu, 18-Oct-2018 3:35pm PDT
Clear
Clear
 Wind from WNW
Wind: WNW 10 mph , 17 km/h
Temperature: 57°F , 14°C
Dew Point: 48°F , 9°C
Humidity: 72%
Barometer: 30.16 inHg , 1021.3 hPa
Clouds: Clear
Visibility: 10 miles , 16 km
2018/10/18 22:35 KFOT 182235Z AUTO 30009KT 10SM CLR 14/09 A3016 RMK AO1
 
KAAT - Alturas, California, USA
Distance from station: E 256mi, 412km
Updated: Thu, 18-Oct-2018 2:55pm PDT
Clear
Clear
 Wind from calm
Wind: Calm
Temperature: 72°F , 22°C
Dew Point: 27°F , -3°C
Humidity: 19%
Barometer: 30.21 inHg , 1023 hPa
Clouds: Clear
Visibility: 10 miles , 16 km
2018/10/18 21:55 KAAT 182155Z AUTO 00000KT 10SM CLR 22/M03 A3021 RMK AO2 SLP217 T02171033
KSVE - Susanville Muni, California, USA
Distance from station: E 241mi, 145km
Updated: Thu, 18-Oct-2018 3:35pm PDT
Clear
Clear
 Wind from ESE
Wind: ESE 6 mph , 9 km/h
Temperature: 73°F , 23°C
Dew Point: 21°F , -6°C
Humidity: 14%
Barometer: 30.20 inHg , 1022.7 hPa
Clouds: Clear
Visibility: 10 miles , 16 km
2018/10/18 22:35 KSVE 182235Z AUTO 11005KT 10SM CLR 23/M06 A3020 RMK AO2

spacer wunderground wow PWS SWWN Image Map